sensor_id;sensor_type;location;lat;lon;timestamp;P1;durP1;ratioP1;P2;durP2;ratioP2
19907;SDS011;10116;53.112;7.356;2022-09-09T00:01:13;1.63;;;1.47;;
19907;SDS011;10116;53.112;7.356;2022-09-09T00:04:01;1.60;;;1.50;;
19907;SDS011;10116;53.112;7.356;2022-09-09T00:09:19;1.00;;;1.00;;
19907;SDS011;10116;53.112;7.356;2022-09-09T00:11:51;1.30;;;1.20;;
19907;SDS011;10116;53.112;7.356;2022-09-09T00:17:23;1.20;;;1.20;;
19907;SDS011;10116;53.112;7.356;2022-09-09T00:20:02;1.30;;;1.30;;
19907;SDS011;10116;53.112;7.356;2022-09-09T00:22:37;2.03;;;1.30;;
19907;SDS011;10116;53.112;7.356;2022-09-09T00:25:12;1.30;;;1.20;;
19907;SDS011;10116;53.112;7.356;2022-09-09T00:27:47;1.20;;;1.10;;
19907;SDS011;10116;53.112;7.356;2022-09-09T00:32:47;1.00;;;1.00;;
19907;SDS011;10116;53.112;7.356;2022-09-09T00:35:31;1.67;;;1.57;;
19907;SDS011;10116;53.112;7.356;2022-09-09T00:38:11;1.37;;;1.33;;
19907;SDS011;10116;53.112;7.356;2022-09-09T00:40:52;1.67;;;1.20;;
19907;SDS011;10116;53.112;7.356;2022-09-09T00:43:24;1.87;;;1.30;;
19907;SDS011;10116;53.112;7.356;2022-09-09T00:48:58;2.20;;;1.40;;
19907;SDS011;10116;53.112;7.356;2022-09-09T00:55:04;1.13;;;1.10;;
19907;SDS011;10116;53.112;7.356;2022-09-09T00:57:53;2.10;;;1.40;;
19907;SDS011;10116;53.112;7.356;2022-09-09T01:00:20;1.63;;;1.20;;
19907;SDS011;10116;53.112;7.356;2022-09-09T01:08:36;1.40;;;1.30;;
19907;SDS011;10116;53.112;7.356;2022-09-09T01:11:22;3.30;;;1.30;;
19907;SDS011;10116;53.112;7.356;2022-09-09T01:14:02;1.40;;;1.30;;
19907;SDS011;10116;53.112;7.356;2022-09-09T01:16:39;1.73;;;1.10;;
19907;SDS011;10116;53.112;7.356;2022-09-09T01:19:06;1.50;;;1.17;;
19907;SDS011;10116;53.112;7.356;2022-09-09T01:21:40;1.30;;;1.30;;
19907;SDS011;10116;53.112;7.356;2022-09-09T01:24:22;1.27;;;1.27;;
19907;SDS011;10116;53.112;7.356;2022-09-09T01:27:20;2.77;;;1.20;;
19907;SDS011;10116;53.112;7.356;2022-09-09T01:29:48;1.67;;;1.23;;
19907;SDS011;10116;53.112;7.356;2022-09-09T01:35:11;2.00;;;1.20;;
19907;SDS011;10116;53.112;7.356;2022-09-09T01:37:56;1.60;;;1.50;;
19907;SDS011;10116;53.112;7.356;2022-09-09T01:40:23;1.33;;;1.23;;
19907;SDS011;10116;53.112;7.356;2022-09-09T01:42:49;1.40;;;1.30;;
19907;SDS011;10116;53.112;7.356;2022-09-09T01:45:15;1.27;;;1.10;;
19907;SDS011;10116;53.112;7.356;2022-09-09T01:47:41;1.40;;;1.30;;
19907;SDS011;10116;53.112;7.356;2022-09-09T01:50:07;1.27;;;1.17;;
19907;SDS011;10116;53.112;7.356;2022-09-09T01:52:36;2.63;;;1.27;;
19907;SDS011;10116;53.112;7.356;2022-09-09T01:55:02;1.60;;;1.50;;
19907;SDS011;10116;53.112;7.356;2022-09-09T01:57:40;1.70;;;1.30;;
19907;SDS011;10116;53.112;7.356;2022-09-09T02:00:14;3.83;;;1.33;;
19907;SDS011;10116;53.112;7.356;2022-09-09T02:05:44;1.23;;;1.23;;
19907;SDS011;10116;53.112;7.356;2022-09-09T02:08:17;1.47;;;1.37;;
19907;SDS011;10116;53.112;7.356;2022-09-09T02:13:30;1.50;;;1.40;;
19907;SDS011;10116;53.112;7.356;2022-09-09T02:16:10;1.10;;;1.00;;
19907;SDS011;10116;53.112;7.356;2022-09-09T02:19:02;2.40;;;1.43;;
19907;SDS011;10116;53.112;7.356;2022-09-09T02:21:38;1.50;;;1.40;;
19907;SDS011;10116;53.112;7.356;2022-09-09T02:24:07;1.00;;;1.00;;
19907;SDS011;10116;53.112;7.356;2022-09-09T02:26:35;0.97;;;0.97;;
19907;SDS011;10116;53.112;7.356;2022-09-09T02:29:06;2.07;;;1.23;;
19907;SDS011;10116;53.112;7.356;2022-09-09T02:31:37;1.30;;;1.20;;
19907;SDS011;10116;53.112;7.356;2022-09-09T02:34:04;1.00;;;0.90;;
19907;SDS011;10116;53.112;7.356;2022-09-09T02:36:33;2.23;;;1.30;;
19907;SDS011;10116;53.112;7.356;2022-09-09T02:39:02;2.20;;;1.20;;
19907;SDS011;10116;53.112;7.356;2022-09-09T02:41:33;1.20;;;1.20;;
19907;SDS011;10116;53.112;7.356;2022-09-09T02:44:00;1.20;;;1.10;;
19907;SDS011;10116;53.112;7.356;2022-09-09T02:46:33;1.50;;;1.27;;
19907;SDS011;10116;53.112;7.356;2022-09-09T02:56:53;1.43;;;1.33;;
19907;SDS011;10116;53.112;7.356;2022-09-09T02:59:20;0.80;;;0.80;;
19907;SDS011;10116;53.112;7.356;2022-09-09T03:01:47;1.67;;;1.20;;
19907;SDS011;10116;53.112;7.356;2022-09-09T03:04:12;1.83;;;1.37;;
19907;SDS011;10116;53.112;7.356;2022-09-09T03:06:38;1.03;;;1.03;;
19907;SDS011;10116;53.112;7.356;2022-09-09T03:09:04;1.70;;;1.40;;
19907;SDS011;10116;53.112;7.356;2022-09-09T03:11:30;3.47;;;1.10;;
19907;SDS011;10116;53.112;7.356;2022-09-09T03:13:56;1.50;;;1.40;;
19907;SDS011;10116;53.112;7.356;2022-09-09T03:16:23;1.30;;;1.20;;
19907;SDS011;10116;53.112;7.356;2022-09-09T03:18:49;1.10;;;1.00;;
19907;SDS011;10116;53.112;7.356;2022-09-09T03:21:14;1.30;;;0.97;;
19907;SDS011;10116;53.112;7.356;2022-09-09T03:23:40;1.57;;;0.93;;
19907;SDS011;10116;53.112;7.356;2022-09-09T03:26:06;2.30;;;1.13;;
19907;SDS011;10116;53.112;7.356;2022-09-09T03:28:32;0.93;;;0.73;;
19907;SDS011;10116;53.112;7.356;2022-09-09T03:31:05;1.27;;;1.17;;
19907;SDS011;10116;53.112;7.356;2022-09-09T03:33:31;4.53;;;1.20;;
19907;SDS011;10116;53.112;7.356;2022-09-09T03:35:56;1.00;;;1.00;;
19907;SDS011;10116;53.112;7.356;2022-09-09T03:38:25;2.10;;;0.90;;
19907;SDS011;10116;53.112;7.356;2022-09-09T03:40:51;2.73;;;1.20;;
19907;SDS011;10116;53.112;7.356;2022-09-09T03:43:21;0.83;;;0.83;;
19907;SDS011;10116;53.112;7.356;2022-09-09T03:45:47;1.17;;;0.87;;
19907;SDS011;10116;53.112;7.356;2022-09-09T03:48:13;2.57;;;1.03;;
19907;SDS011;10116;53.112;7.356;2022-09-09T03:51:01;1.00;;;0.90;;
19907;SDS011;10116;53.112;7.356;2022-09-09T03:53:26;1.20;;;1.10;;
19907;SDS011;10116;53.112;7.356;2022-09-09T03:55:53;1.00;;;1.00;;
19907;SDS011;10116;53.112;7.356;2022-09-09T03:58:20;1.77;;;0.97;;
19907;SDS011;10116;53.112;7.356;2022-09-09T04:00:53;1.23;;;0.90;;
19907;SDS011;10116;53.112;7.356;2022-09-09T04:03:19;1.20;;;1.10;;
19907;SDS011;10116;53.112;7.356;2022-09-09T04:05:45;1.40;;;1.03;;
19907;SDS011;10116;53.112;7.356;2022-09-09T04:08:14;1.73;;;1.20;;
19907;SDS011;10116;53.112;7.356;2022-09-09T04:10:40;1.00;;;1.00;;
19907;SDS011;10116;53.112;7.356;2022-09-09T04:13:06;1.07;;;0.70;;
19907;SDS011;10116;53.112;7.356;2022-09-09T04:15:32;1.27;;;1.03;;
19907;SDS011;10116;53.112;7.356;2022-09-09T04:18:00;1.70;;;1.20;;
19907;SDS011;10116;53.112;7.356;2022-09-09T04:20:26;0.87;;;0.80;;
19907;SDS011;10116;53.112;7.356;2022-09-09T04:22:51;3.43;;;0.90;;
19907;SDS011;10116;53.112;7.356;2022-09-09T04:25:17;0.90;;;0.90;;
19907;SDS011;10116;53.112;7.356;2022-09-09T04:27:42;0.87;;;0.80;;
19907;SDS011;10116;53.112;7.356;2022-09-09T04:30:09;6.43;;;1.10;;
19907;SDS011;10116;53.112;7.356;2022-09-09T04:32:35;0.90;;;0.77;;
19907;SDS011;10116;53.112;7.356;2022-09-09T04:35:02;1.77;;;1.00;;
19907;SDS011;10116;53.112;7.356;2022-09-09T04:37:28;1.37;;;0.90;;
19907;SDS011;10116;53.112;7.356;2022-09-09T04:39:53;0.80;;;0.80;;
19907;SDS011;10116;53.112;7.356;2022-09-09T04:42:19;0.80;;;0.80;;
19907;SDS011;10116;53.112;7.356;2022-09-09T04:44:45;1.60;;;0.90;;
19907;SDS011;10116;53.112;7.356;2022-09-09T04:47:10;1.37;;;1.03;;
19907;SDS011;10116;53.112;7.356;2022-09-09T04:49:36;0.73;;;0.70;;
19907;SDS011;10116;53.112;7.356;2022-09-09T04:52:03;1.20;;;0.93;;
19907;SDS011;10116;53.112;7.356;2022-09-09T04:54:29;1.03;;;0.83;;
19907;SDS011;10116;53.112;7.356;2022-09-09T04:56:54;2.73;;;0.80;;
19907;SDS011;10116;53.112;7.356;2022-09-09T04:59:20;2.40;;;0.90;;
19907;SDS011;10116;53.112;7.356;2022-09-09T05:01:47;2.80;;;1.20;;
19907;SDS011;10116;53.112;7.356;2022-09-09T05:04:13;1.20;;;0.90;;
19907;SDS011;10116;53.112;7.356;2022-09-09T05:06:41;0.70;;;0.70;;
19907;SDS011;10116;53.112;7.356;2022-09-09T05:09:07;0.80;;;0.80;;
19907;SDS011;10116;53.112;7.356;2022-09-09T05:11:34;1.20;;;0.70;;
19907;SDS011;10116;53.112;7.356;2022-09-09T05:14:01;0.80;;;0.60;;
19907;SDS011;10116;53.112;7.356;2022-09-09T05:16:28;2.00;;;0.70;;
19907;SDS011;10116;53.112;7.356;2022-09-09T05:18:55;0.70;;;0.60;;
19907;SDS011;10116;53.112;7.356;2022-09-09T05:21:21;1.23;;;0.93;;
19907;SDS011;10116;53.112;7.356;2022-09-09T05:23:50;1.57;;;0.70;;
19907;SDS011;10116;53.112;7.356;2022-09-09T05:26:17;1.00;;;0.80;;
19907;SDS011;10116;53.112;7.356;2022-09-09T05:28:44;1.27;;;0.70;;
19907;SDS011;10116;53.112;7.356;2022-09-09T05:31:11;1.20;;;0.87;;
19907;SDS011;10116;53.112;7.356;2022-09-09T05:33:38;1.17;;;1.07;;
19907;SDS011;10116;53.112;7.356;2022-09-09T05:36:09;0.77;;;0.77;;
19907;SDS011;10116;53.112;7.356;2022-09-09T05:38:38;0.60;;;0.60;;
19907;SDS011;10116;53.112;7.356;2022-09-09T05:41:05;1.07;;;0.53;;
19907;SDS011;10116;53.112;7.356;2022-09-09T05:43:32;1.23;;;0.77;;
19907;SDS011;10116;53.112;7.356;2022-09-09T05:45:58;0.93;;;0.80;;
19907;SDS011;10116;53.112;7.356;2022-09-09T05:48:42;1.77;;;0.70;;
19907;SDS011;10116;53.112;7.356;2022-09-09T05:51:12;0.80;;;0.80;;
19907;SDS011;10116;53.112;7.356;2022-09-09T05:53:40;1.07;;;0.80;;
19907;SDS011;10116;53.112;7.356;2022-09-09T05:58:37;0.97;;;0.80;;
19907;SDS011;10116;53.112;7.356;2022-09-09T06:01:07;0.70;;;0.50;;
19907;SDS011;10116;53.112;7.356;2022-09-09T06:03:35;0.80;;;0.80;;
19907;SDS011;10116;53.112;7.356;2022-09-09T06:06:02;1.10;;;0.80;;
19907;SDS011;10116;53.112;7.356;2022-09-09T06:08:30;0.80;;;0.70;;
19907;SDS011;10116;53.112;7.356;2022-09-09T06:11:10;1.63;;;0.70;;
19907;SDS011;10116;53.112;7.356;2022-09-09T06:13:40;0.70;;;0.70;;
19907;SDS011;10116;53.112;7.356;2022-09-09T06:16:13;0.90;;;0.90;;
19907;SDS011;10116;53.112;7.356;2022-09-09T06:18:40;2.63;;;0.80;;
19907;SDS011;10116;53.112;7.356;2022-09-09T06:21:09;1.63;;;0.60;;
19907;SDS011;10116;53.112;7.356;2022-09-09T06:23:40;1.40;;;0.90;;
19907;SDS011;10116;53.112;7.356;2022-09-09T06:28:36;0.97;;;0.97;;
19907;SDS011;10116;53.112;7.356;2022-09-09T06:31:03;1.50;;;0.80;;
19907;SDS011;10116;53.112;7.356;2022-09-09T06:33:31;2.00;;;1.20;;
19907;SDS011;10116;53.112;7.356;2022-09-09T06:36:00;0.97;;;0.87;;
19907;SDS011;10116;53.112;7.356;2022-09-09T06:38:26;1.53;;;0.90;;
19907;SDS011;10116;53.112;7.356;2022-09-09T06:40:53;2.13;;;0.87;;
19907;SDS011;10116;53.112;7.356;2022-09-09T06:43:20;4.10;;;0.83;;
19907;SDS011;10116;53.112;7.356;2022-09-09T06:46:21;1.30;;;0.80;;
19907;SDS011;10116;53.112;7.356;2022-09-09T06:48:42;3.47;;;1.07;;
19907;SDS011;10116;53.112;7.356;2022-09-09T06:51:13;0.80;;;0.80;;
19907;SDS011;10116;53.112;7.356;2022-09-09T06:53:42;1.10;;;1.00;;
19907;SDS011;10116;53.112;7.356;2022-09-09T06:58:35;0.97;;;0.80;;
19907;SDS011;10116;53.112;7.356;2022-09-09T07:01:09;1.03;;;0.80;;
19907;SDS011;10116;53.112;7.356;2022-09-09T07:03:39;1.00;;;1.00;;
19907;SDS011;10116;53.112;7.356;2022-09-09T07:06:07;1.37;;;1.13;;
19907;SDS011;10116;53.112;7.356;2022-09-09T07:08:34;6.83;;;2.23;;
19907;SDS011;10116;53.112;7.356;2022-09-09T07:11:03;5.83;;;2.20;;
19907;SDS011;10116;53.112;7.356;2022-09-09T07:13:30;4.87;;;1.80;;
19907;SDS011;10116;53.112;7.356;2022-09-09T07:16:02;3.30;;;1.50;;
19907;SDS011;10116;53.112;7.356;2022-09-09T07:18:29;4.93;;;2.10;;
19907;SDS011;10116;53.112;7.356;2022-09-09T07:20:55;3.93;;;2.13;;
19907;SDS011;10116;53.112;7.356;2022-09-09T07:23:22;2.40;;;2.00;;
19907;SDS011;10116;53.112;7.356;2022-09-09T07:25:48;11.70;;;2.10;;
19907;SDS011;10116;53.112;7.356;2022-09-09T07:28:14;3.53;;;1.53;;
19907;SDS011;10116;53.112;7.356;2022-09-09T07:30:40;5.60;;;1.93;;
19907;SDS011;10116;53.112;7.356;2022-09-09T07:33:05;1.77;;;1.67;;
19907;SDS011;10116;53.112;7.356;2022-09-09T07:35:32;2.50;;;1.70;;
19907;SDS011;10116;53.112;7.356;2022-09-09T07:37:57;4.70;;;1.70;;
19907;SDS011;10116;53.112;7.356;2022-09-09T07:40:25;2.43;;;1.67;;
19907;SDS011;10116;53.112;7.356;2022-09-09T07:42:51;3.27;;;1.73;;
19907;SDS011;10116;53.112;7.356;2022-09-09T07:45:16;5.77;;;2.00;;
19907;SDS011;10116;53.112;7.356;2022-09-09T07:47:42;7.37;;;2.07;;
19907;SDS011;10116;53.112;7.356;2022-09-09T07:50:09;12.57;;;1.70;;
19907;SDS011;10116;53.112;7.356;2022-09-09T07:52:35;3.67;;;1.80;;
19907;SDS011;10116;53.112;7.356;2022-09-09T07:55:01;1.90;;;1.60;;
19907;SDS011;10116;53.112;7.356;2022-09-09T07:57:29;2.27;;;1.60;;
19907;SDS011;10116;53.112;7.356;2022-09-09T07:59:55;2.00;;;1.60;;
19907;SDS011;10116;53.112;7.356;2022-09-09T08:02:22;2.43;;;1.33;;
19907;SDS011;10116;53.112;7.356;2022-09-09T08:04:48;3.13;;;2.07;;
19907;SDS011;10116;53.112;7.356;2022-09-09T08:07:14;3.13;;;1.20;;
19907;SDS011;10116;53.112;7.356;2022-09-09T08:09:41;2.20;;;1.70;;
19907;SDS011;10116;53.112;7.356;2022-09-09T08:12:06;2.93;;;1.33;;
19907;SDS011;10116;53.112;7.356;2022-09-09T08:14:34;2.30;;;1.50;;
19907;SDS011;10116;53.112;7.356;2022-09-09T08:16:59;1.30;;;1.20;;
19907;SDS011;10116;53.112;7.356;2022-09-09T08:19:25;2.93;;;1.20;;
19907;SDS011;10116;53.112;7.356;2022-09-09T08:21:51;1.57;;;1.47;;
19907;SDS011;10116;53.112;7.356;2022-09-09T08:24:17;2.20;;;1.10;;
19907;SDS011;10116;53.112;7.356;2022-09-09T08:26:45;3.30;;;1.43;;
19907;SDS011;10116;53.112;7.356;2022-09-09T08:29:14;3.27;;;1.30;;
19907;SDS011;10116;53.112;7.356;2022-09-09T08:31:44;2.60;;;1.50;;
19907;SDS011;10116;53.112;7.356;2022-09-09T08:34:15;1.40;;;1.20;;
19907;SDS011;10116;53.112;7.356;2022-09-09T08:36:44;3.40;;;1.50;;
19907;SDS011;10116;53.112;7.356;2022-09-09T08:39:11;1.23;;;1.23;;
19907;SDS011;10116;53.112;7.356;2022-09-09T08:41:40;1.47;;;1.20;;
19907;SDS011;10116;53.112;7.356;2022-09-09T08:52:01;3.23;;;1.40;;
19907;SDS011;10116;53.112;7.356;2022-09-09T08:54:32;3.90;;;1.50;;
19907;SDS011;10116;53.112;7.356;2022-09-09T08:57:01;1.80;;;1.50;;
19907;SDS011;10116;53.112;7.356;2022-09-09T08:59:27;3.67;;;2.13;;
19907;SDS011;10116;53.112;7.356;2022-09-09T09:02:01;7.70;;;1.90;;
19907;SDS011;10116;53.112;7.356;2022-09-09T09:04:46;7.13;;;2.00;;
19907;SDS011;10116;53.112;7.356;2022-09-09T09:12:29;14.57;;;2.77;;
19907;SDS011;10116;53.112;7.356;2022-09-09T09:15:00;8.43;;;2.40;;
19907;SDS011;10116;53.112;7.356;2022-09-09T09:17:26;11.93;;;2.93;;
19907;SDS011;10116;53.112;7.356;2022-09-09T09:19:56;6.63;;;2.03;;
19907;SDS011;10116;53.112;7.356;2022-09-09T09:30:24;8.53;;;2.17;;
19907;SDS011;10116;53.112;7.356;2022-09-09T09:35:52;6.80;;;1.90;;
19907;SDS011;10116;53.112;7.356;2022-09-09T09:38:25;5.30;;;1.80;;
19907;SDS011;10116;53.112;7.356;2022-09-09T09:40:53;7.60;;;2.40;;
19907;SDS011;10116;53.112;7.356;2022-09-09T09:43:27;3.97;;;2.00;;
19907;SDS011;10116;53.112;7.356;2022-09-09T09:45:58;6.57;;;1.63;;
19907;SDS011;10116;53.112;7.356;2022-09-09T09:48:24;3.47;;;1.60;;
19907;SDS011;10116;53.112;7.356;2022-09-09T09:50:55;7.40;;;1.90;;
19907;SDS011;10116;53.112;7.356;2022-09-09T09:53:32;3.43;;;1.60;;
19907;SDS011;10116;53.112;7.356;2022-09-09T09:56:01;3.93;;;1.50;;
19907;SDS011;10116;53.112;7.356;2022-09-09T09:58:29;3.10;;;1.70;;
19907;SDS011;10116;53.112;7.356;2022-09-09T10:00:58;2.83;;;1.47;;
19907;SDS011;10116;53.112;7.356;2022-09-09T10:03:27;7.03;;;1.40;;
19907;SDS011;10116;53.112;7.356;2022-09-09T10:05:54;5.97;;;1.70;;
19907;SDS011;10116;53.112;7.356;2022-09-09T10:08:21;2.30;;;1.50;;
19907;SDS011;10116;53.112;7.356;2022-09-09T10:15:59;2.70;;;1.80;;
19907;SDS011;10116;53.112;7.356;2022-09-09T10:18:58;1.97;;;1.37;;
19907;SDS011;10116;53.112;7.356;2022-09-09T10:21:32;4.30;;;1.33;;
19907;SDS011;10116;53.112;7.356;2022-09-09T10:30:06;5.87;;;1.80;;
19907;SDS011;10116;53.112;7.356;2022-09-09T10:35:40;2.27;;;1.13;;
19907;SDS011;10116;53.112;7.356;2022-09-09T10:38:16;1.63;;;1.17;;
19907;SDS011;10116;53.112;7.356;2022-09-09T10:56:55;2.20;;;1.07;;
19907;SDS011;10116;53.112;7.356;2022-09-09T10:59:27;3.07;;;1.43;;
19907;SDS011;10116;53.112;7.356;2022-09-09T11:04:32;2.80;;;1.30;;
19907;SDS011;10116;53.112;7.356;2022-09-09T11:07:05;2.03;;;1.30;;
19907;SDS011;10116;53.112;7.356;2022-09-09T11:09:36;2.20;;;1.30;;
19907;SDS011;10116;53.112;7.356;2022-09-09T11:12:06;1.73;;;1.10;;
19907;SDS011;10116;53.112;7.356;2022-09-09T11:17:24;3.27;;;1.33;;
19907;SDS011;10116;53.112;7.356;2022-09-09T11:19:54;2.20;;;1.20;;
19907;SDS011;10116;53.112;7.356;2022-09-09T11:22:33;2.87;;;1.40;;
19907;SDS011;10116;53.112;7.356;2022-09-09T11:33:26;1.43;;;1.00;;
19907;SDS011;10116;53.112;7.356;2022-09-09T11:38:53;3.47;;;1.10;;
19907;SDS011;10116;53.112;7.356;2022-09-09T11:41:32;2.10;;;1.40;;
19907;SDS011;10116;53.112;7.356;2022-09-09T11:44:09;1.90;;;1.63;;
19907;SDS011;10116;53.112;7.356;2022-09-09T11:46:51;3.07;;;1.37;;
19907;SDS011;10116;53.112;7.356;2022-09-09T11:49:39;1.57;;;1.00;;
19907;SDS011;10116;53.112;7.356;2022-09-09T11:52:37;2.20;;;1.20;;
19907;SDS011;10116;53.112;7.356;2022-09-09T11:55:10;1.13;;;1.03;;
19907;SDS011;10116;53.112;7.356;2022-09-09T11:57:56;1.43;;;0.93;;
19907;SDS011;10116;53.112;7.356;2022-09-09T12:00:47;2.40;;;1.57;;
19907;SDS011;10116;53.112;7.356;2022-09-09T12:06:31;1.60;;;1.30;;
19907;SDS011;10116;53.112;7.356;2022-09-09T12:08:58;1.63;;;0.87;;
19907;SDS011;10116;53.112;7.356;2022-09-09T12:11:49;1.47;;;1.00;;
19907;SDS011;10116;53.112;7.356;2022-09-09T12:17:09;3.43;;;1.40;;
19907;SDS011;10116;53.112;7.356;2022-09-09T12:19:41;0.90;;;0.80;;
19907;SDS011;10116;53.112;7.356;2022-09-09T12:25:29;2.60;;;1.30;;
19907;SDS011;10116;53.112;7.356;2022-09-09T12:33:42;1.73;;;1.10;;
19907;SDS011;10116;53.112;7.356;2022-09-09T12:36:21;1.93;;;1.03;;
19907;SDS011;10116;53.112;7.356;2022-09-09T12:38:50;1.60;;;1.00;;
19907;SDS011;10116;53.112;7.356;2022-09-09T12:41:21;1.90;;;1.10;;
19907;SDS011;10116;53.112;7.356;2022-09-09T12:43:49;2.37;;;1.13;;
19907;SDS011;10116;53.112;7.356;2022-09-09T12:51:55;2.73;;;1.10;;
19907;SDS011;10116;53.112;7.356;2022-09-09T12:54:22;1.60;;;1.13;;
19907;SDS011;10116;53.112;7.356;2022-09-09T12:56:48;1.67;;;1.00;;
19907;SDS011;10116;53.112;7.356;2022-09-09T12:59:23;2.87;;;1.30;;
19907;SDS011;10116;53.112;7.356;2022-09-09T13:01:56;3.53;;;1.00;;
19907;SDS011;10116;53.112;7.356;2022-09-09T13:04:23;4.40;;;1.47;;
19907;SDS011;10116;53.112;7.356;2022-09-09T13:06:49;4.97;;;1.33;;
19907;SDS011;10116;53.112;7.356;2022-09-09T13:09:15;3.13;;;1.10;;
19907;SDS011;10116;53.112;7.356;2022-09-09T13:11:41;2.57;;;1.03;;
19907;SDS011;10116;53.112;7.356;2022-09-09T13:14:14;1.67;;;1.20;;
19907;SDS011;10116;53.112;7.356;2022-09-09T13:16:58;5.80;;;1.00;;
19907;SDS011;10116;53.112;7.356;2022-09-09T13:19:25;2.17;;;1.30;;
19907;SDS011;10116;53.112;7.356;2022-09-09T13:21:54;3.00;;;1.27;;
19907;SDS011;10116;53.112;7.356;2022-09-09T13:24:27;5.30;;;1.43;;
19907;SDS011;10116;53.112;7.356;2022-09-09T13:27:19;2.70;;;1.40;;
19907;SDS011;10116;53.112;7.356;2022-09-09T13:29:52;5.40;;;1.00;;
19907;SDS011;10116;53.112;7.356;2022-09-09T13:32:20;8.13;;;1.30;;
19907;SDS011;10116;53.112;7.356;2022-09-09T13:35:22;1.60;;;1.00;;
19907;SDS011;10116;53.112;7.356;2022-09-09T13:37:48;3.27;;;1.20;;
19907;SDS011;10116;53.112;7.356;2022-09-09T13:40:17;4.00;;;1.17;;
19907;SDS011;10116;53.112;7.356;2022-09-09T13:42:44;3.53;;;1.27;;
19907;SDS011;10116;53.112;7.356;2022-09-09T13:45:23;6.03;;;1.20;;
19907;SDS011;10116;53.112;7.356;2022-09-09T13:47:51;1.40;;;0.90;;
19907;SDS011;10116;53.112;7.356;2022-09-09T13:52:58;2.63;;;0.87;;
19907;SDS011;10116;53.112;7.356;2022-09-09T13:55:27;2.43;;;0.90;;
19907;SDS011;10116;53.112;7.356;2022-09-09T13:57:55;4.73;;;1.00;;
19907;SDS011;10116;53.112;7.356;2022-09-09T14:00:24;4.30;;;1.00;;
19907;SDS011;10116;53.112;7.356;2022-09-09T14:02:50;3.33;;;1.53;;
19907;SDS011;10116;53.112;7.356;2022-09-09T14:05:19;2.10;;;1.00;;
19907;SDS011;10116;53.112;7.356;2022-09-09T14:07:45;18.63;;;2.20;;
19907;SDS011;10116;53.112;7.356;2022-09-09T14:10:11;6.77;;;1.80;;
19907;SDS011;10116;53.112;7.356;2022-09-09T14:12:37;7.20;;;1.70;;
19907;SDS011;10116;53.112;7.356;2022-09-09T14:15:03;4.20;;;1.63;;
19907;SDS011;10116;53.112;7.356;2022-09-09T14:17:30;7.73;;;1.30;;
19907;SDS011;10116;53.112;7.356;2022-09-09T14:19:56;5.10;;;1.43;;
19907;SDS011;10116;53.112;7.356;2022-09-09T14:22:23;6.23;;;1.73;;
19907;SDS011;10116;53.112;7.356;2022-09-09T14:24:49;3.60;;;0.87;;
19907;SDS011;10116;53.112;7.356;2022-09-09T14:27:16;4.03;;;1.00;;
19907;SDS011;10116;53.112;7.356;2022-09-09T14:29:42;10.43;;;1.17;;
19907;SDS011;10116;53.112;7.356;2022-09-09T14:32:09;5.73;;;0.90;;
19907;SDS011;10116;53.112;7.356;2022-09-09T14:34:35;6.47;;;1.17;;
19907;SDS011;10116;53.112;7.356;2022-09-09T14:37:00;2.33;;;0.97;;
19907;SDS011;10116;53.112;7.356;2022-09-09T14:39:26;1.80;;;0.70;;
19907;SDS011;10116;53.112;7.356;2022-09-09T14:41:51;4.33;;;1.57;;
19907;SDS011;10116;53.112;7.356;2022-09-09T14:44:17;2.90;;;0.70;;
19907;SDS011;10116;53.112;7.356;2022-09-09T14:46:43;3.27;;;1.10;;
19907;SDS011;10116;53.112;7.356;2022-09-09T14:49:09;6.67;;;1.17;;
19907;SDS011;10116;53.112;7.356;2022-09-09T14:51:38;2.97;;;1.10;;
19907;SDS011;10116;53.112;7.356;2022-09-09T14:54:04;3.53;;;1.00;;
19907;SDS011;10116;53.112;7.356;2022-09-09T14:56:30;0.87;;;0.87;;
19907;SDS011;10116;53.112;7.356;2022-09-09T14:58:59;3.83;;;1.17;;
19907;SDS011;10116;53.112;7.356;2022-09-09T15:01:28;3.10;;;0.87;;
19907;SDS011;10116;53.112;7.356;2022-09-09T15:03:56;1.93;;;1.10;;
19907;SDS011;10116;53.112;7.356;2022-09-09T15:06:24;1.80;;;0.80;;
19907;SDS011;10116;53.112;7.356;2022-09-09T15:08:51;3.43;;;0.80;;
19907;SDS011;10116;53.112;7.356;2022-09-09T15:11:18;2.93;;;1.23;;
19907;SDS011;10116;53.112;7.356;2022-09-09T15:13:45;2.60;;;0.87;;
19907;SDS011;10116;53.112;7.356;2022-09-09T15:16:15;4.63;;;0.80;;
19907;SDS011;10116;53.112;7.356;2022-09-09T15:18:43;2.00;;;1.10;;
19907;SDS011;10116;53.112;7.356;2022-09-09T15:21:10;1.33;;;0.70;;
19907;SDS011;10116;53.112;7.356;2022-09-09T15:23:40;0.87;;;0.87;;
19907;SDS011;10116;53.112;7.356;2022-09-09T15:26:07;4.00;;;1.47;;
19907;SDS011;10116;53.112;7.356;2022-09-09T15:28:34;4.77;;;0.97;;
19907;SDS011;10116;53.112;7.356;2022-09-09T15:31:04;3.13;;;1.13;;
19907;SDS011;10116;53.112;7.356;2022-09-09T15:33:46;2.57;;;0.90;;
19907;SDS011;10116;53.112;7.356;2022-09-09T15:38:41;2.10;;;1.10;;
19907;SDS011;10116;53.112;7.356;2022-09-09T15:41:08;5.30;;;1.17;;
19907;SDS011;10116;53.112;7.356;2022-09-09T15:43:34;1.17;;;0.80;;
19907;SDS011;10116;53.112;7.356;2022-09-09T15:46:02;1.00;;;0.63;;
19907;SDS011;10116;53.112;7.356;2022-09-09T15:48:45;8.63;;;1.27;;
19907;SDS011;10116;53.112;7.356;2022-09-09T15:51:11;2.73;;;1.10;;
19907;SDS011;10116;53.112;7.356;2022-09-09T15:53:37;4.23;;;1.00;;
19907;SDS011;10116;53.112;7.356;2022-09-09T15:56:06;2.33;;;0.97;;
19907;SDS011;10116;53.112;7.356;2022-09-09T15:58:32;1.40;;;1.10;;
19907;SDS011;10116;53.112;7.356;2022-09-09T16:01:02;2.20;;;1.13;;
19907;SDS011;10116;53.112;7.356;2022-09-09T16:03:29;3.10;;;1.03;;
19907;SDS011;10116;53.112;7.356;2022-09-09T16:05:58;2.60;;;1.00;;
19907;SDS011;10116;53.112;7.356;2022-09-09T16:08:24;1.00;;;0.87;;
19907;SDS011;10116;53.112;7.356;2022-09-09T16:10:55;4.30;;;0.80;;
19907;SDS011;10116;53.112;7.356;2022-09-09T16:13:21;3.23;;;1.43;;
19907;SDS011;10116;53.112;7.356;2022-09-09T16:15:53;2.50;;;0.93;;
19907;SDS011;10116;53.112;7.356;2022-09-09T16:18:19;2.60;;;0.70;;
19907;SDS011;10116;53.112;7.356;2022-09-09T16:20:52;1.83;;;1.00;;
19907;SDS011;10116;53.112;7.356;2022-09-09T16:23:21;1.10;;;0.80;;
19907;SDS011;10116;53.112;7.356;2022-09-09T16:25:56;4.60;;;0.90;;
19907;SDS011;10116;53.112;7.356;2022-09-09T16:28:22;2.87;;;2.13;;
19907;SDS011;10116;53.112;7.356;2022-09-09T16:30:48;4.00;;;2.10;;
19907;SDS011;10116;53.112;7.356;2022-09-09T16:33:14;4.40;;;2.00;;
19907;SDS011;10116;53.112;7.356;2022-09-09T16:35:41;3.80;;;1.70;;
19907;SDS011;10116;53.112;7.356;2022-09-09T16:38:06;5.67;;;2.70;;
19907;SDS011;10116;53.112;7.356;2022-09-09T16:40:35;4.03;;;2.07;;
19907;SDS011;10116;53.112;7.356;2022-09-09T16:43:06;4.80;;;1.83;;
19907;SDS011;10116;53.112;7.356;2022-09-09T16:45:32;3.33;;;1.70;;
19907;SDS011;10116;53.112;7.356;2022-09-09T16:47:58;3.33;;;1.70;;
19907;SDS011;10116;53.112;7.356;2022-09-09T16:50:25;5.23;;;1.53;;
19907;SDS011;10116;53.112;7.356;2022-09-09T16:52:51;2.73;;;1.57;;
19907;SDS011;10116;53.112;7.356;2022-09-09T16:55:17;2.70;;;1.40;;
19907;SDS011;10116;53.112;7.356;2022-09-09T16:57:46;1.43;;;1.30;;
19907;SDS011;10116;53.112;7.356;2022-09-09T17:00:14;2.40;;;1.40;;
19907;SDS011;10116;53.112;7.356;2022-09-09T17:02:41;1.33;;;1.20;;
19907;SDS011;10116;53.112;7.356;2022-09-09T17:05:08;3.57;;;1.37;;
19907;SDS011;10116;53.112;7.356;2022-09-09T17:07:34;2.23;;;1.30;;
19907;SDS011;10116;53.112;7.356;2022-09-09T17:10:00;2.70;;;1.20;;
19907;SDS011;10116;53.112;7.356;2022-09-09T17:12:26;1.20;;;0.90;;
19907;SDS011;10116;53.112;7.356;2022-09-09T17:14:52;1.10;;;1.00;;
19907;SDS011;10116;53.112;7.356;2022-09-09T17:17:20;1.13;;;0.97;;
19907;SDS011;10116;53.112;7.356;2022-09-09T17:19:46;1.40;;;0.83;;
19907;SDS011;10116;53.112;7.356;2022-09-09T17:22:11;1.50;;;0.87;;
19907;SDS011;10116;53.112;7.356;2022-09-09T17:24:37;1.13;;;1.03;;